sensor_id;sensor_type;location;lat;lon;timestamp;pressure;altitude;pressure_sealevel;temperature;humidity
70900;BME280;67902;52.154;5.430;2023-11-19T00:00:52;100843.94;;;12.92;100.00
70900;BME280;67902;52.154;5.430;2023-11-19T00:03:19;100850.72;;;12.89;100.00
70900;BME280;67902;52.154;5.430;2023-11-19T00:05:46;100859.69;;;12.90;100.00
70900;BME280;67902;52.154;5.430;2023-11-19T00:08:13;100854.25;;;12.90;100.00
70900;BME280;67902;52.154;5.430;2023-11-19T00:10:39;100856.41;;;12.88;100.00
70900;BME280;67902;52.154;5.430;2023-11-19T00:13:06;100838.47;;;12.87;100.00
70900;BME280;67902;52.154;5.430;2023-11-19T00:15:33;100832.78;;;12.88;100.00
70900;BME280;67902;52.154;5.430;2023-11-19T00:18:00;100842.25;;;12.86;100.00
70900;BME280;67902;52.154;5.430;2023-11-19T00:20:30;100854.22;;;12.85;100.00
70900;BME280;67902;52.154;5.430;2023-11-19T00:22:57;100848.25;;;12.88;100.00
70900;BME280;67902;52.154;5.430;2023-11-19T00:25:24;100850.97;;;12.88;100.00
70900;BME280;67902;52.154;5.430;2023-11-19T00:27:51;100849.31;;;12.87;100.00
70900;BME280;67902;52.154;5.430;2023-11-19T00:30:20;100838.22;;;12.88;100.00
70900;BME280;67902;52.154;5.430;2023-11-19T00:32:46;100834.06;;;12.80;100.00
70900;BME280;67902;52.154;5.430;2023-11-19T00:35:12;100821.50;;;12.74;100.00
70900;BME280;67902;52.154;5.430;2023-11-19T00:37:42;100823.09;;;12.70;100.00
70900;BME280;67902;52.154;5.430;2023-11-19T00:40:09;100816.28;;;12.68;100.00
70900;BME280;67902;52.154;5.430;2023-11-19T00:42:37;100823.63;;;12.67;100.00
70900;BME280;67902;52.154;5.430;2023-11-19T00:45:04;100819.00;;;12.68;100.00
70900;BME280;67902;52.154;5.430;2023-11-19T00:47:35;100820.63;;;12.69;100.00
70900;BME280;67902;52.154;5.430;2023-11-19T00:50:03;100803.81;;;12.72;100.00
70900;BME280;67902;52.154;5.430;2023-11-19T00:52:30;100805.75;;;12.71;100.00
70900;BME280;67902;52.154;5.430;2023-11-19T00:54:56;100799.22;;;12.72;100.00
70900;BME280;67902;52.154;5.430;2023-11-19T00:57:23;100790.81;;;12.74;100.00
70900;BME280;67902;52.154;5.430;2023-11-19T00:59:50;100805.47;;;12.73;100.00
70900;BME280;67902;52.154;5.430;2023-11-19T01:02:17;100811.97;;;12.72;100.00
70900;BME280;67902;52.154;5.430;2023-11-19T01:04:43;100813.88;;;12.71;100.00
70900;BME280;67902;52.154;5.430;2023-11-19T01:07:10;100819.31;;;12.71;100.00
70900;BME280;67902;52.154;5.430;2023-11-19T01:09:41;100807.31;;;12.67;100.00
70900;BME280;67902;52.154;5.430;2023-11-19T01:12:08;100807.31;;;12.67;100.00
70900;BME280;67902;52.154;5.430;2023-11-19T01:14:36;100811.16;;;12.71;100.00
70900;BME280;67902;52.154;5.430;2023-11-19T01:17:03;100811.22;;;12.76;100.00
70900;BME280;67902;52.154;5.430;2023-11-19T01:19:31;100816.13;;;12.79;100.00
70900;BME280;67902;52.154;5.430;2023-11-19T01:21:57;100795.19;;;12.80;100.00
70900;BME280;67902;52.154;5.430;2023-11-19T01:24:24;100785.41;;;12.79;100.00
70900;BME280;67902;52.154;5.430;2023-11-19T01:26:51;100799.22;;;12.72;100.00
70900;BME280;67902;52.154;5.430;2023-11-19T01:29:18;100786.44;;;12.73;100.00
70900;BME280;67902;52.154;5.430;2023-11-19T01:31:46;100774.75;;;12.72;100.00
70900;BME280;67902;52.154;5.430;2023-11-19T01:34:17;100770.41;;;12.71;100.00
70900;BME280;67902;52.154;5.430;2023-11-19T01:36:44;100785.63;;;12.72;100.00
70900;BME280;67902;52.154;5.430;2023-11-19T01:39:12;100778.81;;;12.70;100.00
70900;BME280;67902;52.154;5.430;2023-11-19T01:41:39;100782.91;;;12.72;100.00
70900;BME280;67902;52.154;5.430;2023-11-19T01:44:06;100785.09;;;12.75;100.00
70900;BME280;67902;52.154;5.430;2023-11-19T01:46:33;100769.34;;;12.77;100.00
70900;BME280;67902;52.154;5.430;2023-11-19T01:49:01;100795.47;;;12.78;100.00
70900;BME280;67902;52.154;5.430;2023-11-19T01:51:28;100789.47;;;12.76;100.00
70900;BME280;67902;52.154;5.430;2023-11-19T01:53:57;100788.84;;;12.69;100.00
70900;BME280;67902;52.154;5.430;2023-11-19T01:56:25;100793.75;;;12.67;100.00
70900;BME280;67902;52.154;5.430;2023-11-19T01:58:53;100783.69;;;12.68;100.00
70900;BME280;67902;52.154;5.430;2023-11-19T02:01:20;100785.59;;;12.67;100.00
70900;BME280;67902;52.154;5.430;2023-11-19T02:03:47;100784.53;;;12.68;100.00
70900;BME280;67902;52.154;5.430;2023-11-19T02:06:14;100780.16;;;12.67;100.00
70900;BME280;67902;52.154;5.430;2023-11-19T02:08:42;100785.56;;;12.62;100.00
70900;BME280;67902;52.154;5.430;2023-11-19T02:11:10;100789.53;;;12.55;100.00
70900;BME280;67902;52.154;5.430;2023-11-19T02:13:37;100771.88;;;12.52;100.00
70900;BME280;67902;52.154;5.430;2023-11-19T02:16:04;100773.94;;;12.40;100.00
70900;BME280;67902;52.154;5.430;2023-11-19T02:18:31;100781.50;;;12.38;100.00
70900;BME280;67902;52.154;5.430;2023-11-19T02:20:58;100778.19;;;12.31;100.00
70900;BME280;67902;52.154;5.430;2023-11-19T02:23:28;100786.53;;;12.25;100.00
70900;BME280;67902;52.154;5.430;2023-11-19T02:26:03;100791.16;;;12.24;100.00
70900;BME280;67902;52.154;5.430;2023-11-19T02:28:33;100787.00;;;12.16;100.00
70900;BME280;67902;52.154;5.430;2023-11-19T02:31:00;100799.19;;;12.14;100.00
70900;BME280;67902;52.154;5.430;2023-11-19T02:33:26;100809.50;;;12.12;100.00
70900;BME280;67902;52.154;5.430;2023-11-19T02:35:53;100802.59;;;12.04;100.00
70900;BME280;67902;52.154;5.430;2023-11-19T02:38:19;100805.06;;;12.06;100.00
70900;BME280;67902;52.154;5.430;2023-11-19T02:40:48;100801.81;;;12.04;100.00
70900;BME280;67902;52.154;5.430;2023-11-19T02:43:15;100790.88;;;11.99;100.00
70900;BME280;67902;52.154;5.430;2023-11-19T02:45:42;100790.06;;;11.98;100.00
70900;BME280;67902;52.154;5.430;2023-11-19T02:48:11;100774.34;;;12.00;100.00
70900;BME280;67902;52.154;5.430;2023-11-19T02:50:38;100786.53;;;11.98;100.00
70900;BME280;67902;52.154;5.430;2023-11-19T02:53:04;100793.47;;;11.89;100.00
70900;BME280;67902;52.154;5.430;2023-11-19T02:55:33;100784.84;;;11.92;100.00
70900;BME280;67902;52.154;5.430;2023-11-19T02:58:04;100789.19;;;11.93;100.00
70900;BME280;67902;52.154;5.430;2023-11-19T03:00:46;100792.47;;;11.95;100.00
70900;BME280;67902;52.154;5.430;2023-11-19T03:03:20;100796.56;;;11.97;100.00
70900;BME280;67902;52.154;5.430;2023-11-19T03:05:49;100801.88;;;11.87;100.00
70900;BME280;67902;52.154;5.430;2023-11-19T03:08:16;100796.69;;;11.86;100.00
70900;BME280;67902;52.154;5.430;2023-11-19T03:10:45;100797.19;;;11.83;100.00
70900;BME280;67902;52.154;5.430;2023-11-19T03:13:13;100789.00;;;11.78;100.00
70900;BME280;67902;52.154;5.430;2023-11-19T03:15:46;100796.19;;;11.67;100.00
70900;BME280;67902;52.154;5.430;2023-11-19T03:18:13;100795.59;;;11.65;100.00
70900;BME280;67902;52.154;5.430;2023-11-19T03:20:39;100806.97;;;11.62;100.00
70900;BME280;67902;52.154;5.430;2023-11-19T03:23:06;100807.19;;;11.60;100.00
70900;BME280;67902;52.154;5.430;2023-11-19T03:25:33;100795.19;;;11.56;100.00
70900;BME280;67902;52.154;5.430;2023-11-19T03:28:00;100793.03;;;11.53;100.00
70900;BME280;67902;52.154;5.430;2023-11-19T03:30:29;100800.28;;;11.48;100.00
70900;BME280;67902;52.154;5.430;2023-11-19T03:32:59;100795.09;;;11.46;100.00
70900;BME280;67902;52.154;5.430;2023-11-19T03:35:29;100788.53;;;11.42;100.00
70900;BME280;67902;52.154;5.430;2023-11-19T03:37:56;100785.66;;;11.32;100.00
70900;BME280;67902;52.154;5.430;2023-11-19T03:40:23;100780.25;;;11.32;100.00
70900;BME280;67902;52.154;5.430;2023-11-19T03:42:51;100790.53;;;11.30;100.00
70900;BME280;67902;52.154;5.430;2023-11-19T03:45:18;100774.44;;;11.24;100.00
70900;BME280;67902;52.154;5.430;2023-11-19T03:47:44;100765.97;;;11.20;100.00
70900;BME280;67902;52.154;5.430;2023-11-19T03:50:11;100777.31;;;11.17;100.00
70900;BME280;67902;52.154;5.430;2023-11-19T03:52:37;100785.97;;;11.14;100.00
70900;BME280;67902;52.154;5.430;2023-11-19T03:55:07;100793.50;;;11.12;100.00
70900;BME280;67902;52.154;5.430;2023-11-19T03:57:35;100789.41;;;11.10;100.00
70900;BME280;67902;52.154;5.430;2023-11-19T04:00:02;100791.56;;;11.07;100.00
70900;BME280;67902;52.154;5.430;2023-11-19T04:02:40;100797.78;;;11.08;100.00
70900;BME280;67902;52.154;5.430;2023-11-19T04:05:07;100799.91;;;11.06;100.00
70900;BME280;67902;52.154;5.430;2023-11-19T04:07:34;100794.25;;;11.07;100.00
70900;BME280;67902;52.154;5.430;2023-11-19T04:10:00;100807.56;;;11.09;100.00
70900;BME280;67902;52.154;5.430;2023-11-19T04:12:27;100799.19;;;11.11;100.00
70900;BME280;67902;52.154;5.430;2023-11-19T04:14:53;100797.47;;;11.04;100.00
70900;BME280;67902;52.154;5.430;2023-11-19T04:17:23;100794.41;;;11.01;100.00
70900;BME280;67902;52.154;5.430;2023-11-19T04:19:49;100802.81;;;10.99;100.00
70900;BME280;67902;52.154;5.430;2023-11-19T04:22:16;100816.09;;;11.01;100.00
70900;BME280;67902;52.154;5.430;2023-11-19T04:24:43;100803.72;;;11.05;100.00
70900;BME280;67902;52.154;5.430;2023-11-19T04:27:11;100814.53;;;11.05;100.00
70900;BME280;67902;52.154;5.430;2023-11-19T04:29:38;100813.72;;;11.04;100.00
70900;BME280;67902;52.154;5.430;2023-11-19T04:32:05;100814.78;;;11.03;100.00
70900;BME280;67902;52.154;5.430;2023-11-19T04:34:31;100811.28;;;11.03;100.00
70900;BME280;67902;52.154;5.430;2023-11-19T04:36:58;100812.66;;;11.05;100.00
70900;BME280;67902;52.154;5.430;2023-11-19T04:39:39;100812.41;;;11.07;100.00
70900;BME280;67902;52.154;5.430;2023-11-19T04:42:05;100803.03;;;10.98;100.00
70900;BME280;67902;52.154;5.430;2023-11-19T04:44:33;100809.44;;;10.92;100.00
70900;BME280;67902;52.154;5.430;2023-11-19T04:46:59;100816.44;;;10.88;100.00
70900;BME280;67902;52.154;5.430;2023-11-19T04:49:27;100819.22;;;10.93;100.00
70900;BME280;67902;52.154;5.430;2023-11-19T04:51:54;100810.28;;;10.92;100.00
70900;BME280;67902;52.154;5.430;2023-11-19T04:54:20;100806.66;;;10.87;100.00
70900;BME280;67902;52.154;5.430;2023-11-19T04:56:47;100803.13;;;10.86;100.00
70900;BME280;67902;52.154;5.430;2023-11-19T04:59:14;100800.13;;;10.83;100.00
70900;BME280;67902;52.154;5.430;2023-11-19T05:01:40;100805.03;;;10.86;100.00
70900;BME280;67902;52.154;5.430;2023-11-19T05:04:07;100801.72;;;10.84;100.00
70900;BME280;67902;52.154;5.430;2023-11-19T05:06:34;100809.56;;;10.80;100.00
70900;BME280;67902;52.154;5.430;2023-11-19T05:09:02;100803.81;;;10.77;100.00
70900;BME280;67902;52.154;5.430;2023-11-19T05:11:32;100816.53;;;10.76;100.00
70900;BME280;67902;52.154;5.430;2023-11-19T05:13:59;100822.75;;;10.77;100.00
70900;BME280;67902;52.154;5.430;2023-11-19T05:16:26;100824.97;;;10.80;100.00
70900;BME280;67902;52.154;5.430;2023-11-19T05:18:53;100822.28;;;10.80;100.00
70900;BME280;67902;52.154;5.430;2023-11-19T05:21:19;100821.94;;;10.76;100.00
70900;BME280;67902;52.154;5.430;2023-11-19T05:23:46;100811.03;;;10.71;100.00
70900;BME280;67902;52.154;5.430;2023-11-19T05:26:20;100811.34;;;10.75;100.00
70900;BME280;67902;52.154;5.430;2023-11-19T05:28:47;100807.97;;;10.68;100.00
70900;BME280;67902;52.154;5.430;2023-11-19T05:31:16;100817.16;;;10.67;100.00
70900;BME280;67902;52.154;5.430;2023-11-19T05:33:43;100811.44;;;10.63;100.00
70900;BME280;67902;52.154;5.430;2023-11-19T05:36:11;100810.59;;;10.63;100.00
70900;BME280;67902;52.154;5.430;2023-11-19T05:38:38;100806.72;;;10.59;100.00
70900;BME280;67902;52.154;5.430;2023-11-19T05:41:05;100812.56;;;10.51;100.00
70900;BME280;67902;52.154;5.430;2023-11-19T05:43:32;100808.44;;;10.48;100.00
70900;BME280;67902;52.154;5.430;2023-11-19T05:45:59;100812.31;;;10.52;100.00
70900;BME280;67902;52.154;5.430;2023-11-19T05:48:26;100809.28;;;10.48;100.00
70900;BME280;67902;52.154;5.430;2023-11-19T05:50:53;100815.81;;;10.53;100.00
70900;BME280;67902;52.154;5.430;2023-11-19T05:53:20;100822.91;;;10.54;100.00
70900;BME280;67902;52.154;5.430;2023-11-19T05:55:47;100833.38;;;10.50;100.00
70900;BME280;67902;52.154;5.430;2023-11-19T05:58:27;100822.72;;;10.43;100.00
70900;BME280;67902;52.154;5.430;2023-11-19T06:00:56;100827.31;;;10.43;100.00
70900;BME280;67902;52.154;5.430;2023-11-19T06:03:23;100826.25;;;10.44;100.00
70900;BME280;67902;52.154;5.430;2023-11-19T06:05:50;100817.53;;;10.42;100.00
70900;BME280;67902;52.154;5.430;2023-11-19T06:08:17;100821.75;;;10.50;100.00
70900;BME280;67902;52.154;5.430;2023-11-19T06:10:46;100825.03;;;10.52;100.00
70900;BME280;67902;52.154;5.430;2023-11-19T06:13:13;100825.03;;;10.52;100.00
70900;BME280;67902;52.154;5.430;2023-11-19T06:15:42;100823.94;;;10.53;100.00
70900;BME280;67902;52.154;5.430;2023-11-19T06:18:09;100824.06;;;10.58;100.00
70900;BME280;67902;52.154;5.430;2023-11-19T06:20:36;100827.25;;;10.55;100.00
70900;BME280;67902;52.154;5.430;2023-11-19T06:23:05;100832.19;;;10.58;100.00
70900;BME280;67902;52.154;5.430;2023-11-19T06:25:32;100816.75;;;10.58;100.00
70900;BME280;67902;52.154;5.430;2023-11-19T06:28:01;100827.00;;;10.56;100.00
70900;BME280;67902;52.154;5.430;2023-11-19T06:30:28;100840.78;;;10.55;100.00
70900;BME280;67902;52.154;5.430;2023-11-19T06:32:56;100836.44;;;10.54;100.00
70900;BME280;67902;52.154;5.430;2023-11-19T06:35:22;100838.09;;;10.55;100.00
70900;BME280;67902;52.154;5.430;2023-11-19T06:37:49;100830.09;;;10.48;100.00
70900;BME280;67902;52.154;5.430;2023-11-19T06:40:15;100838.47;;;10.46;100.00
70900;BME280;67902;52.154;5.430;2023-11-19T06:42:42;100840.94;;;10.48;100.00
70900;BME280;67902;52.154;5.430;2023-11-19T06:45:09;100840.19;;;10.53;100.00
70900;BME280;67902;52.154;5.430;2023-11-19T06:47:36;100843.91;;;10.46;100.00
70900;BME280;67902;52.154;5.430;2023-11-19T06:50:02;100854.13;;;10.44;100.00
70900;BME280;67902;52.154;5.430;2023-11-19T06:52:31;100848.00;;;10.49;100.00
70900;BME280;67902;52.154;5.430;2023-11-19T06:54:58;100850.94;;;10.47;100.00
70900;BME280;67902;52.154;5.430;2023-11-19T06:57:27;100850.44;;;10.51;100.00
70900;BME280;67902;52.154;5.430;2023-11-19T06:59:57;100854.81;;;10.52;100.00
70900;BME280;67902;52.154;5.430;2023-11-19T07:02:24;100851.63;;;10.55;100.00
70900;BME280;67902;52.154;5.430;2023-11-19T07:04:53;100862.28;;;10.61;100.00
70900;BME280;67902;52.154;5.430;2023-11-19T07:07:21;100853.59;;;10.59;100.00
70900;BME280;67902;52.154;5.430;2023-11-19T07:09:47;100866.56;;;10.57;100.00
70900;BME280;67902;52.154;5.430;2023-11-19T07:12:14;100865.09;;;10.66;100.00
70900;BME280;67902;52.154;5.430;2023-11-19T07:14:41;100866.72;;;10.67;100.00
70900;BME280;67902;52.154;5.430;2023-11-19T07:17:08;100868.03;;;10.65;100.00
70900;BME280;67902;52.154;5.430;2023-11-19T07:19:37;100868.03;;;10.65;100.00
70900;BME280;67902;52.154;5.430;2023-11-19T07:22:05;100875.09;;;10.66;100.00
70900;BME280;67902;52.154;5.430;2023-11-19T07:24:33;100880.03;;;10.69;100.00
70900;BME280;67902;52.154;5.430;2023-11-19T07:27:00;100890.28;;;10.67;100.00
70900;BME280;67902;52.154;5.430;2023-11-19T07:29:26;100884.16;;;10.71;100.00
70900;BME280;67902;52.154;5.430;2023-11-19T07:31:55;100892.63;;;10.75;100.00
70900;BME280;67902;52.154;5.430;2023-11-19T07:34:23;100887.03;;;10.81;100.00
70900;BME280;67902;52.154;5.430;2023-11-19T07:36:50;100881.38;;;10.83;100.00
70900;BME280;67902;52.154;5.430;2023-11-19T07:39:16;100888.75;;;10.87;100.00
70900;BME280;67902;52.154;5.430;2023-11-19T07:41:43;100881.78;;;10.91;100.00
70900;BME280;67902;52.154;5.430;2023-11-19T07:44:09;100891.88;;;10.96;100.00
70900;BME280;67902;52.154;5.430;2023-11-19T07:46:37;100878.41;;;11.01;100.00
70900;BME280;67902;52.154;5.430;2023-11-19T07:49:04;100885.56;;;11.07;100.00
70900;BME280;67902;52.154;5.430;2023-11-19T07:51:30;100894.38;;;11.14;100.00
70900;BME280;67902;52.154;5.430;2023-11-19T07:53:57;100891.41;;;11.16;100.00
70900;BME280;67902;52.154;5.430;2023-11-19T07:56:24;100892.78;;;11.18;100.00
70900;BME280;67902;52.154;5.430;2023-11-19T07:58:51;100888.94;;;11.14;100.00
70900;BME280;67902;52.154;5.430;2023-11-19T08:01:18;100888.28;;;11.07;100.00
70900;BME280;67902;52.154;5.430;2023-11-19T08:03:45;100885.97;;;11.16;100.00
70900;BME280;67902;52.154;5.430;2023-11-19T08:06:14;100883.50;;;11.47;100.00
70900;BME280;67902;52.154;5.430;2023-11-19T08:08:41;100879.53;;;11.72;100.00
70900;BME280;67902;52.154;5.430;2023-11-19T08:11:07;100882.59;;;11.97;100.00
70900;BME280;67902;52.154;5.430;2023-11-19T08:13:33;100885.34;;;12.02;100.00
70900;BME280;67902;52.154;5.430;2023-11-19T08:16:00;100879.19;;;12.06;100.00
70900;BME280;67902;52.154;5.430;2023-11-19T08:18:26;100893.31;;;11.87;100.00
70900;BME280;67902;52.154;5.430;2023-11-19T08:20:53;100890.09;;;12.11;100.00
70900;BME280;67902;52.154;5.430;2023-11-19T08:23:20;100894.00;;;12.42;99.09
70900;BME280;67902;52.154;5.430;2023-11-19T08:25:47;100894.94;;;12.31;98.52
70900;BME280;67902;52.154;5.430;2023-11-19T08:28:13;100891.09;;;12.05;99.55
70900;BME280;67902;52.154;5.430;2023-11-19T08:30:40;100884.13;;;12.09;100.00
70900;BME280;67902;52.154;5.430;2023-11-19T08:33:06;100902.56;;;12.56;98.83
70900;BME280;67902;52.154;5.430;2023-11-19T08:35:33;100895.91;;;12.68;97.14
70900;BME280;67902;52.154;5.430;2023-11-19T08:38:00;100895.38;;;12.45;97.27
70900;BME280;67902;52.154;5.430;2023-11-19T08:40:27;100900.22;;;12.64;97.91
70900;BME280;67902;52.154;5.430;2023-11-19T08:42:54;100894.31;;;12.72;96.79
70900;BME280;67902;52.154;5.430;2023-11-19T08:45:20;100899.41;;;12.69;97.07
70900;BME280;67902;52.154;5.430;2023-11-19T08:47:47;100907.63;;;13.01;95.13
70900;BME280;67902;52.154;5.430;2023-11-19T08:50:14;100904.06;;;13.00;94.17
70900;BME280;67902;52.154;5.430;2023-11-19T08:52:40;100910.06;;;12.70;95.46
70900;BME280;67902;52.154;5.430;2023-11-19T08:55:07;100898.22;;;12.33;97.21
70900;BME280;67902;52.154;5.430;2023-11-19T08:57:33;100900.13;;;12.11;98.96
70900;BME280;67902;52.154;5.430;2023-11-19T09:00:00;100899.25;;;12.05;98.96
70900;BME280;67902;52.154;5.430;2023-11-19T09:02:26;100902.63;;;12.12;99.11
70900;BME280;67902;52.154;5.430;2023-11-19T09:04:53;100906.44;;;12.38;98.30
70900;BME280;67902;52.154;5.430;2023-11-19T09:07:20;100906.09;;;12.56;97.30
70900;BME280;67902;52.154;5.430;2023-11-19T09:09:47;100903.25;;;13.00;95.13
70900;BME280;67902;52.154;5.430;2023-11-19T09:12:14;100904.56;;;12.65;94.29
70900;BME280;67902;52.154;5.430;2023-11-19T09:14:40;100901.06;;;12.70;96.13
70900;BME280;67902;52.154;5.430;2023-11-19T09:17:08;100902.84;;;12.86;94.03
70900;BME280;67902;52.154;5.430;2023-11-19T09:19:36;100902.22;;;13.06;94.01
70900;BME280;67902;52.154;5.430;2023-11-19T09:22:02;100906.41;;;12.87;94.00
70900;BME280;67902;52.154;5.430;2023-11-19T09:24:29;100902.19;;;12.47;96.18
70900;BME280;67902;52.154;5.430;2023-11-19T09:26:55;100908.47;;;12.26;96.35
70900;BME280;67902;52.154;5.430;2023-11-19T09:29:22;100901.34;;;12.20;97.21
70900;BME280;67902;52.154;5.430;2023-11-19T09:31:50;100898.63;;;12.20;97.24
70900;BME280;67902;52.154;5.430;2023-11-19T09:34:16;100897.03;;;12.24;97.39
70900;BME280;67902;52.154;5.430;2023-11-19T09:36:43;100901.72;;;12.29;97.73
70900;BME280;67902;52.154;5.430;2023-11-19T09:39:11;100901.22;;;12.32;98.08
70900;BME280;67902;52.154;5.430;2023-11-19T09:41:39;100909.13;;;12.38;97.68
70900;BME280;67902;52.154;5.430;2023-11-19T09:44:05;100897.53;;;12.69;97.54
70900;BME280;67902;52.154;5.430;2023-11-19T09:46:32;100891.84;;;13.66;93.33
70900;BME280;67902;52.154;5.430;2023-11-19T09:49:00;100886.94;;;13.26;92.18
70900;BME280;67902;52.154;5.430;2023-11-19T09:51:28;100893.59;;;13.09;92.59
70900;BME280;67902;52.154;5.430;2023-11-19T09:53:55;100887.56;;;12.80;93.23
70900;BME280;67902;52.154;5.430;2023-11-19T09:56:22;100884.72;;;12.65;94.57
70900;BME280;67902;52.154;5.430;2023-11-19T09:58:49;100888.50;;;12.64;96.33
70900;BME280;67902;52.154;5.430;2023-11-19T10:01:16;100892.00;;;12.86;93.91
70900;BME280;67902;52.154;5.430;2023-11-19T10:03:47;100890.22;;;12.97;94.19
70900;BME280;67902;52.154;5.430;2023-11-19T10:06:15;100888.69;;;13.11;93.10
70900;BME280;67902;52.154;5.430;2023-11-19T10:08:42;100889.28;;;13.13;92.35
70900;BME280;67902;52.154;5.430;2023-11-19T10:11:09;100875.50;;;12.98;92.68
70900;BME280;67902;52.154;5.430;2023-11-19T10:13:40;100887.06;;;13.10;92.45
70900;BME280;67902;52.154;5.430;2023-11-19T10:16:08;100873.56;;;13.20;92.65
70900;BME280;67902;52.154;5.430;2023-11-19T10:18:35;100861.75;;;13.41;92.57
70900;BME280;67902;52.154;5.430;2023-11-19T10:21:06;100863.31;;;13.79;91.70
70900;BME280;67902;52.154;5.430;2023-11-19T10:23:52;100862.31;;;14.87;86.52
70900;BME280;67902;52.154;5.430;2023-11-19T10:26:20;100860.88;;;17.46;75.14
70900;BME280;67902;52.154;5.430;2023-11-19T10:28:47;100856.75;;;15.83;78.60
70900;BME280;67902;52.154;5.430;2023-11-19T10:31:15;100851.38;;;15.48;80.94
70900;BME280;67902;52.154;5.430;2023-11-19T10:33:42;100854.91;;;16.33;76.99
70900;BME280;67902;52.154;5.430;2023-11-19T10:36:12;100860.28;;;16.48;74.53
70900;BME280;67902;52.154;5.430;2023-11-19T10:38:39;100846.03;;;17.52;71.51
70900;BME280;67902;52.154;5.430;2023-11-19T10:41:07;100842.78;;;19.88;64.57
70900;BME280;67902;52.154;5.430;2023-11-19T10:43:43;100844.72;;;21.22;60.41
70900;BME280;67902;52.154;5.430;2023-11-19T10:46:13;100849.66;;;20.53;57.95
70900;BME280;67902;52.154;5.430;2023-11-19T10:48:41;100846.72;;;18.58;64.57
70900;BME280;67902;52.154;5.430;2023-11-19T10:51:07;100838.22;;;18.73;63.91
70900;BME280;67902;52.154;5.430;2023-11-19T10:53:38;100840.97;;;19.37;64.28
70900;BME280;67902;52.154;5.430;2023-11-19T10:56:11;100833.97;;;20.54;59.75
70900;BME280;67902;52.154;5.430;2023-11-19T10:58:44;100843.00;;;20.32;58.98
70900;BME280;67902;52.154;5.430;2023-11-19T11:01:16;100837.38;;;21.17;58.00
70900;BME280;67902;52.154;5.430;2023-11-19T11:03:45;100831.75;;;22.83;54.38
70900;BME280;67902;52.154;5.430;2023-11-19T11:06:13;100843.25;;;22.51;51.26
70900;BME280;67902;52.154;5.430;2023-11-19T11:08:40;100845.06;;;21.90;52.08
70900;BME280;67902;52.154;5.430;2023-11-19T11:11:07;100844.69;;;22.23;50.56
70900;BME280;67902;52.154;5.430;2023-11-19T11:13:35;100841.50;;;22.89;50.48
70900;BME280;67902;52.154;5.430;2023-11-19T11:16:04;100842.44;;;23.02;48.52
70900;BME280;67902;52.154;5.430;2023-11-19T11:18:34;100844.03;;;23.84;47.64
70900;BME280;67902;52.154;5.430;2023-11-19T11:32:01;100838.66;;;17.24;64.14
70900;BME280;67902;52.154;5.430;2023-11-19T11:34:40;100838.69;;;16.46;68.02
70900;BME280;67902;52.154;5.430;2023-11-19T11:37:18;100838.91;;;17.27;67.19
70900;BME280;67902;52.154;5.430;2023-11-19T11:39:46;100841.13;;;16.53;68.77
70900;BME280;67902;52.154;5.430;2023-11-19T11:42:30;100842.59;;;15.71;72.25
70900;BME280;67902;52.154;5.430;2023-11-19T11:55:36;100828.94;;;15.76;72.94
70900;BME280;67902;52.154;5.430;2023-11-19T11:58:05;100836.66;;;15.29;75.09
70900;BME280;67902;52.154;5.430;2023-11-19T12:00:32;100839.97;;;14.95;77.20
70900;BME280;67902;52.154;5.430;2023-11-19T12:03:00;100827.94;;;14.71;77.51
70900;BME280;67902;52.154;5.430;2023-11-19T12:05:28;100829.56;;;14.52;78.78
70900;BME280;67902;52.154;5.430;2023-11-19T12:08:03;100832.28;;;14.47;78.58
70900;BME280;67902;52.154;5.430;2023-11-19T12:10:31;100824.00;;;14.17;79.20
70900;BME280;67902;52.154;5.430;2023-11-19T12:13:02;100817.97;;;14.10;79.77
70900;BME280;67902;52.154;5.430;2023-11-19T12:15:31;100813.59;;;13.93;80.90
70900;BME280;67902;52.154;5.430;2023-11-19T12:17:58;100822.59;;;13.99;81.50
70900;BME280;67902;52.154;5.430;2023-11-19T12:20:26;100816.19;;;14.40;80.57
70900;BME280;67902;52.154;5.430;2023-11-19T12:22:55;100808.88;;;16.55;75.85
70900;BME280;67902;52.154;5.430;2023-11-19T12:25:22;100803.50;;;17.36;68.60
70900;BME280;67902;52.154;5.430;2023-11-19T12:27:50;100807.44;;;16.18;71.23
70900;BME280;67902;52.154;5.430;2023-11-19T12:30:25;100814.84;;;15.19;75.36
70900;BME280;67902;52.154;5.430;2023-11-19T12:32:53;100815.66;;;14.74;77.36
70900;BME280;67902;52.154;5.430;2023-11-19T12:35:21;100813.75;;;14.39;78.80
70900;BME280;67902;52.154;5.430;2023-11-19T12:37:51;100819.09;;;14.19;80.13
70900;BME280;67902;52.154;5.430;2023-11-19T12:40:21;100815.25;;;14.10;81.43
70900;BME280;67902;52.154;5.430;2023-11-19T12:42:49;100827.78;;;14.01;81.32
70900;BME280;67902;52.154;5.430;2023-11-19T12:45:16;100822.81;;;13.87;81.82
70900;BME280;67902;52.154;5.430;2023-11-19T12:47:43;100818.19;;;13.88;81.81
70900;BME280;67902;52.154;5.430;2023-11-19T12:50:10;100833.16;;;13.90;81.72
70900;BME280;67902;52.154;5.430;2023-11-19T12:52:37;100819.00;;;13.88;82.59
70900;BME280;67902;52.154;5.430;2023-11-19T12:55:05;100820.06;;;13.82;82.15
70900;BME280;67902;52.154;5.430;2023-11-19T12:57:52;100812.41;;;13.74;82.07
70900;BME280;67902;52.154;5.430;2023-11-19T13:00:25;100816.75;;;13.75;82.24
70900;BME280;67902;52.154;5.430;2023-11-19T13:02:54;100817.03;;;13.74;81.68
70900;BME280;67902;52.154;5.430;2023-11-19T13:05:28;100824.91;;;13.70;82.65
70900;BME280;67902;52.154;5.430;2023-11-19T13:08:08;100826.00;;;13.69;83.74